createdAt,value
2023-02-16T00:00:27.363Z,8.60
2023-02-16T00:02:54.637Z,11.02
2023-02-16T00:05:29.314Z,8.57
2023-02-16T00:07:58.149Z,8.75
2023-02-16T00:10:26.960Z,10.57
2023-02-16T00:13:12.812Z,10.85
2023-02-16T00:15:41.300Z,7.55
2023-02-16T00:18:22.490Z,10.43
2023-02-16T00:20:49.955Z,8.73
2023-02-16T00:23:17.406Z,8.43
2023-02-16T00:25:44.625Z,8.55
2023-02-16T00:28:17.766Z,8.52
2023-02-16T00:30:46.256Z,9.52
2023-02-16T00:33:20.071Z,9.30
2023-02-16T00:35:47.893Z,8.98
2023-02-16T00:38:16.916Z,6.35
2023-02-16T00:40:44.212Z,7.47
2023-02-16T00:43:26.751Z,5.85
2023-02-16T00:45:55.122Z,6.57
2023-02-16T00:48:23.711Z,9.25
2023-02-16T00:50:53.922Z,4.90
2023-02-16T00:53:21.026Z,7.32
2023-02-16T00:55:48.205Z,7.30
2023-02-16T00:58:30.831Z,9.10
2023-02-16T01:01:06.720Z,7.13
2023-02-16T01:03:34.366Z,7.30
2023-02-16T01:06:20.064Z,8.95
2023-02-16T01:09:08.822Z,8.20
2023-02-16T01:11:36.040Z,8.18
2023-02-16T01:14:03.260Z,7.05
2023-02-16T01:16:39.048Z,8.30
2023-02-16T01:19:08.188Z,6.88
2023-02-16T01:21:35.258Z,7.68
2023-02-16T01:24:02.378Z,6.93
2023-02-16T01:26:30.436Z,6.50
2023-02-16T01:28:57.710Z,8.25
2023-02-16T01:31:24.967Z,9.80
2023-02-16T01:33:52.163Z,7.68
2023-02-16T01:36:34.649Z,7.32
2023-02-16T01:39:02.616Z,7.47
2023-02-16T01:41:51.853Z,6.97
2023-02-16T01:44:26.139Z,5.20
2023-02-16T01:47:10.198Z,7.25
2023-02-16T01:49:38.351Z,6.85
2023-02-16T01:52:11.397Z,7.53
2023-02-16T01:54:56.549Z,7.30
2023-02-16T01:57:37.253Z,5.88
2023-02-16T02:00:27.414Z,7.43
2023-02-16T02:03:21.199Z,6.55
2023-02-16T02:05:49.333Z,6.35
2023-02-16T02:08:42.844Z,6.40
2023-02-16T02:11:17.099Z,6.32
2023-02-16T02:14:09.713Z,5.30
2023-02-16T02:16:37.052Z,5.05
2023-02-16T02:19:04.528Z,5.53
2023-02-16T02:22:08.659Z,5.88
2023-02-16T02:24:41.640Z,5.38
2023-02-16T02:27:33.081Z,6.25
2023-02-16T02:30:09.575Z,9.48
2023-02-16T02:33:19.818Z,6.75
2023-02-16T02:36:10.168Z,3.70
2023-02-16T02:38:48.398Z,6.38
2023-02-16T02:41:51.100Z,4.68
2023-02-16T02:46:48.916Z,6.68
2023-02-16T02:49:18.979Z,6.55
2023-02-16T02:51:46.542Z,6.22
2023-02-16T02:54:42.773Z,4.18
2023-02-16T02:57:37.442Z,6.85
2023-02-16T03:00:55.515Z,4.15
2023-02-16T03:03:32.354Z,9.40
2023-02-16T03:06:06.998Z,5.53
2023-02-16T03:08:37.779Z,8.02
2023-02-16T03:11:30.404Z,6.65
2023-02-16T03:14:02.742Z,6.53
2023-02-16T03:16:38.937Z,5.15
2023-02-16T03:19:27.700Z,5.45
2023-02-16T03:22:15.742Z,10.23
2023-02-16T03:25:01.992Z,6.07
2023-02-16T03:27:52.444Z,5.25
2023-02-16T03:30:22.086Z,6.05
2023-02-16T03:32:49.915Z,4.97
2023-02-16T03:35:17.229Z,7.10
2023-02-16T03:37:45.381Z,8.38
2023-02-16T03:40:28.605Z,9.25
2023-02-16T03:43:05.339Z,6.60
2023-02-16T03:45:38.224Z,8.40
2023-02-16T03:48:05.929Z,7.97
2023-02-16T03:50:33.330Z,4.75
2023-02-16T03:53:09.619Z,9.02
2023-02-16T03:55:43.119Z,7.38
2023-02-16T03:58:12.362Z,5.15
2023-02-16T04:00:39.969Z,7.18
2023-02-16T04:03:09.162Z,7.20
2023-02-16T04:05:36.761Z,7.03
2023-02-16T04:08:04.574Z,7.68
2023-02-16T04:10:32.016Z,7.70
2023-02-16T04:12:59.227Z,6.22
2023-02-16T04:15:29.298Z,5.63
2023-02-16T04:17:56.568Z,4.82
2023-02-16T04:20:26.911Z,4.30
2023-02-16T04:22:54.429Z,5.53
2023-02-16T04:25:21.786Z,7.25
2023-02-16T04:27:49.623Z,6.32
2023-02-16T04:30:21.002Z,7.90
2023-02-16T04:32:48.829Z,7.93
2023-02-16T04:35:17.471Z,9.38
2023-02-16T04:37:44.873Z,6.70
2023-02-16T04:40:14.266Z,6.18
2023-02-16T04:42:42.336Z,8.82
2023-02-16T04:45:10.773Z,7.72
2023-02-16T04:47:38.142Z,8.52
2023-02-16T04:50:06.257Z,8.98
2023-02-16T04:52:34.501Z,8.70
2023-02-16T04:55:01.728Z,9.27
2023-02-16T04:57:28.924Z,8.15
2023-02-16T04:59:56.095Z,9.20
2023-02-16T05:02:23.408Z,8.20
2023-02-16T05:04:50.632Z,8.98
2023-02-16T05:07:17.755Z,8.00
2023-02-16T05:09:44.865Z,7.00
2023-02-16T05:12:30.411Z,7.05
2023-02-16T05:14:57.563Z,6.72
2023-02-16T05:17:25.969Z,7.80
2023-02-16T05:19:58.922Z,8.80
2023-02-16T05:22:28.992Z,7.80
2023-02-16T05:24:56.170Z,5.90
2023-02-16T05:27:26.717Z,7.53
2023-02-16T05:29:53.899Z,8.20
2023-02-16T05:32:21.697Z,8.60
2023-02-16T05:34:48.980Z,9.38
2023-02-16T05:37:18.123Z,6.03
2023-02-16T05:39:45.776Z,7.75
2023-02-16T05:42:13.444Z,7.22
2023-02-16T05:44:40.725Z,7.60
2023-02-16T05:47:08.158Z,5.80
2023-02-16T05:49:35.381Z,8.65
2023-02-16T05:52:02.650Z,5.55
2023-02-16T05:54:29.770Z,6.88
2023-02-16T05:56:56.970Z,7.72
2023-02-16T05:59:24.081Z,8.82
2023-02-16T06:01:52.370Z,6.95
2023-02-16T06:04:21.458Z,5.53
2023-02-16T06:06:49.204Z,5.18
2023-02-16T06:09:16.392Z,4.95
2023-02-16T06:11:43.627Z,7.75
2023-02-16T06:14:16.655Z,7.90
2023-02-16T06:16:47.521Z,7.57
2023-02-16T06:19:16.275Z,7.47
2023-02-16T06:21:43.808Z,8.27
2023-02-16T06:24:12.903Z,5.32
2023-02-16T06:26:40.107Z,3.78
2023-02-16T06:29:07.748Z,5.63
2023-02-16T06:31:36.640Z,7.65
2023-02-16T06:34:05.056Z,8.43
2023-02-16T06:36:32.912Z,9.18
2023-02-16T06:39:00.286Z,7.93
2023-02-16T06:41:40.617Z,8.48
2023-02-16T06:44:12.693Z,6.82
2023-02-16T06:46:46.345Z,6.88
2023-02-16T06:49:17.034Z,6.95
2023-02-16T06:51:45.035Z,7.05
2023-02-16T06:54:12.647Z,6.90
2023-02-16T06:56:40.446Z,6.45
2023-02-16T06:59:08.094Z,6.45
2023-02-16T07:01:35.700Z,6.63
2023-02-16T07:04:03.176Z,7.45
2023-02-16T07:06:31.210Z,6.60
2023-02-16T07:08:59.879Z,5.25
2023-02-16T07:11:27.145Z,5.05
2023-02-16T07:13:54.327Z,7.20
2023-02-16T07:16:21.839Z,6.97
2023-02-16T07:18:48.978Z,6.10
2023-02-16T07:21:16.200Z,5.30
2023-02-16T07:23:43.769Z,4.82
2023-02-16T07:26:11.086Z,5.60
2023-02-16T07:28:38.342Z,5.18
2023-02-16T07:31:14.240Z,5.95
2023-02-16T07:33:41.799Z,5.85
2023-02-16T07:36:10.285Z,5.80
2023-02-16T07:38:39.085Z,5.78
2023-02-16T07:41:09.378Z,6.10
2023-02-16T07:43:38.754Z,5.97
2023-02-16T07:46:06.320Z,6.35
2023-02-16T07:48:33.533Z,6.80
2023-02-16T07:51:02.085Z,6.55
2023-02-16T07:53:29.572Z,7.40
2023-02-16T07:55:57.351Z,6.85
2023-02-16T07:58:27.830Z,5.97
2023-02-16T08:01:14.732Z,6.55
2023-02-16T08:03:43.486Z,5.40
2023-02-16T08:06:11.011Z,4.72
2023-02-16T08:08:39.364Z,5.20
2023-02-16T08:11:11.760Z,5.40
2023-02-16T08:13:39.431Z,5.97
2023-02-16T08:16:22.241Z,5.55
2023-02-16T08:18:51.184Z,5.00
2023-02-16T08:21:23.982Z,5.38
2023-02-16T08:23:58.650Z,6.40
2023-02-16T08:26:29.169Z,6.40
2023-02-16T08:28:58.479Z,6.50
2023-02-16T08:31:30.235Z,5.72
2023-02-16T08:34:00.650Z,6.18
2023-02-16T08:36:32.746Z,7.07
2023-02-16T08:39:01.261Z,7.72
2023-02-16T08:41:36.478Z,7.38
2023-02-16T08:44:04.928Z,7.30
2023-02-16T08:46:34.564Z,7.70
2023-02-16T08:49:02.312Z,7.57
2023-02-16T08:51:34.903Z,7.70
2023-02-16T08:54:05.989Z,7.80
2023-02-16T08:56:35.952Z,6.95
2023-02-16T08:59:03.291Z,7.35
2023-02-16T09:01:31.083Z,7.80
2023-02-16T09:03:59.182Z,7.80
2023-02-16T09:06:26.360Z,7.90
2023-02-16T09:08:57.703Z,8.13
2023-02-16T09:11:25.851Z,7.25
2023-02-16T09:13:53.508Z,6.50
2023-02-16T09:16:23.880Z,5.80
2023-02-16T09:18:52.467Z,6.57
2023-02-16T09:21:25.746Z,6.18
2023-02-16T09:23:56.726Z,5.85
2023-02-16T09:26:25.653Z,5.40
2023-02-16T09:28:53.964Z,6.82
2023-02-16T09:31:27.327Z,8.10
2023-02-16T09:34:04.245Z,6.40
2023-02-16T09:36:32.272Z,7.20
2023-02-16T09:38:59.965Z,6.20
2023-02-16T09:42:00.477Z,6.00
2023-02-16T09:44:33.747Z,6.45
2023-02-16T09:47:05.341Z,6.45
2023-02-16T09:49:40.315Z,7.55
2023-02-16T09:52:35.287Z,8.05
2023-02-16T09:55:07.330Z,8.20
2023-02-16T09:57:56.173Z,8.00
2023-02-16T10:00:32.344Z,6.40
2023-02-16T10:03:09.949Z,6.10
2023-02-16T10:05:55.404Z,7.20
2023-02-16T10:08:30.236Z,7.40
2023-02-16T10:11:38.260Z,6.97
2023-02-16T10:14:48.765Z,7.72
2023-02-16T10:17:37.940Z,7.05
2023-02-16T10:20:18.961Z,6.68
2023-02-16T10:23:01.312Z,6.60
2023-02-16T10:25:50.321Z,7.13
2023-02-16T10:28:22.738Z,7.10
2023-02-16T10:33:40.586Z,7.25
2023-02-16T10:36:29.610Z,8.13
2023-02-16T10:39:07.252Z,7.68
2023-02-16T10:41:44.675Z,6.75
2023-02-16T10:44:25.653Z,7.47
2023-02-16T10:47:00.140Z,7.38
2023-02-16T10:49:29.633Z,8.70
2023-02-16T10:51:57.473Z,8.35
2023-02-16T10:54:30.975Z,8.40
2023-02-16T10:57:20.413Z,8.80
2023-02-16T10:59:48.485Z,8.90
2023-02-16T11:02:23.924Z,7.60
2023-02-16T11:04:53.054Z,6.90
2023-02-16T11:07:25.934Z,8.00
2023-02-16T11:09:55.775Z,8.13
2023-02-16T11:12:27.553Z,7.47
2023-02-16T11:15:00.629Z,8.13
2023-02-16T11:17:28.097Z,7.75
2023-02-16T11:20:02.042Z,9.20
2023-02-16T11:22:41.898Z,7.57
2023-02-16T11:25:36.503Z,15.40
2023-02-16T11:28:07.902Z,7.22
2023-02-16T11:30:41.499Z,7.97
2023-02-16T11:33:30.170Z,7.47
2023-02-16T11:35:57.558Z,6.15
2023-02-16T11:38:32.155Z,7.38
2023-02-16T11:41:01.652Z,7.72
2023-02-16T11:43:33.603Z,6.63
2023-02-16T11:46:05.502Z,10.27
2023-02-16T11:48:34.011Z,7.50
2023-02-16T11:51:05.546Z,6.70
2023-02-16T11:53:35.806Z,11.47
2023-02-16T11:56:24.410Z,12.07
2023-02-16T11:59:14.505Z,6.03
2023-02-16T12:02:21.412Z,23.33
2023-02-16T12:04:54.557Z,6.32
2023-02-16T12:07:34.950Z,6.20
2023-02-16T12:10:13.386Z,5.13
2023-02-16T12:12:45.745Z,6.18
2023-02-16T12:15:33.053Z,5.78
2023-02-16T12:18:21.665Z,7.13
2023-02-16T12:20:51.565Z,5.40
2023-02-16T12:23:37.017Z,6.07
2023-02-16T12:26:16.026Z,6.10
2023-02-16T12:29:01.762Z,5.80
2023-02-16T12:31:50.646Z,5.43
2023-02-16T12:34:20.993Z,7.20
2023-02-16T12:37:05.041Z,5.75
2023-02-16T12:39:47.142Z,5.28
2023-02-16T12:42:46.284Z,5.22
2023-02-16T12:45:28.010Z,4.55
2023-02-16T12:48:16.211Z,4.10
2023-02-16T12:50:44.715Z,4.72
2023-02-16T12:53:14.791Z,4.20
2023-02-16T12:55:51.340Z,3.80
2023-02-16T12:58:44.914Z,3.88
2023-02-16T13:01:22.309Z,4.65
2023-02-16T13:03:55.824Z,3.80
2023-02-16T13:06:41.280Z,3.75
2023-02-16T13:09:25.254Z,4.38
2023-02-16T13:12:11.831Z,4.80
2023-02-16T13:14:43.150Z,4.45
2023-02-16T13:17:21.458Z,7.90
2023-02-16T13:19:48.698Z,5.40
2023-02-16T13:22:32.228Z,5.40
2023-02-16T13:25:28.948Z,7.00
2023-02-16T13:28:31.692Z,4.95
2023-02-16T13:31:04.885Z,7.65
2023-02-16T13:33:51.060Z,6.60
2023-02-16T13:36:39.942Z,7.55
2023-02-16T13:39:22.000Z,4.10
2023-02-16T13:41:58.345Z,4.43
2023-02-16T13:44:48.780Z,6.05
2023-02-16T13:47:22.449Z,12.45
2023-02-16T13:49:57.209Z,6.55
2023-02-16T13:52:42.413Z,5.00
2023-02-16T13:55:37.733Z,8.05
2023-02-16T13:58:25.099Z,5.88
2023-02-16T14:00:53.305Z,4.05
2023-02-16T14:03:21.343Z,4.55
2023-02-16T14:06:12.578Z,4.47
2023-02-16T14:08:39.732Z,5.03
2023-02-16T14:11:10.399Z,8.45
2023-02-16T14:13:37.512Z,4.38
2023-02-16T14:16:22.814Z,4.18
2023-02-16T14:19:18.047Z,4.10
2023-02-16T14:21:50.520Z,4.70
2023-02-16T14:27:06.293Z,4.00
2023-02-16T14:29:41.106Z,4.10
2023-02-16T14:32:08.366Z,3.55
2023-02-16T14:34:43.768Z,3.92
2023-02-16T14:37:17.273Z,3.00
2023-02-16T14:40:06.915Z,3.88
2023-02-16T14:42:36.218Z,3.42
2023-02-16T14:45:25.960Z,3.80
2023-02-16T14:48:02.500Z,4.05
2023-02-16T14:50:54.931Z,4.00
2023-02-16T14:53:56.162Z,3.83
2023-02-16T14:56:38.623Z,3.40
2023-02-16T14:59:35.740Z,3.85
2023-02-16T15:02:28.556Z,3.33
2023-02-16T15:04:55.677Z,3.40
2023-02-16T15:07:25.781Z,3.13
2023-02-16T15:09:58.169Z,3.28
2023-02-16T15:12:40.750Z,3.40
2023-02-16T15:15:13.703Z,4.40
2023-02-16T15:17:45.651Z,4.95
2023-02-16T15:20:25.703Z,5.13
2023-02-16T15:22:58.307Z,3.85
2023-02-16T15:28:10.904Z,5.05
2023-02-16T15:30:41.571Z,3.90
2023-02-16T15:33:29.010Z,2.85
2023-02-16T15:36:10.969Z,2.92
2023-02-16T15:38:41.694Z,3.55
2023-02-16T15:41:13.883Z,3.53
2023-02-16T15:43:43.739Z,3.63
2023-02-16T15:46:33.615Z,4.13
2023-02-16T15:49:20.516Z,4.88
2023-02-16T15:51:49.554Z,4.35
2023-02-16T15:54:29.363Z,4.40
2023-02-16T15:57:00.310Z,3.67
2023-02-16T15:59:35.942Z,4.03
2023-02-16T16:02:13.628Z,3.85
2023-02-16T16:05:02.819Z,3.28
2023-02-16T16:07:36.918Z,3.17
2023-02-16T16:10:16.045Z,3.58
2023-02-16T16:12:44.682Z,3.67
2023-02-16T16:15:21.250Z,3.33
2023-02-16T16:17:48.699Z,2.60
2023-02-16T16:20:31.281Z,3.40
2023-02-16T16:23:25.064Z,2.60
2023-02-16T16:25:53.338Z,2.42
2023-02-16T16:28:29.147Z,2.00
2023-02-16T16:31:34.875Z,2.08
2023-02-16T16:34:07.818Z,2.42
2023-02-16T16:36:47.320Z,2.80
2023-02-16T16:39:17.708Z,2.10
2023-02-16T16:41:47.624Z,2.92
2023-02-16T16:44:38.412Z,2.72
2023-02-16T16:47:27.197Z,2.53
2023-02-16T16:50:18.667Z,2.50
2023-02-16T16:52:49.378Z,2.40
2023-02-16T16:55:19.619Z,2.75
2023-02-16T16:57:47.950Z,2.83
2023-02-16T17:00:16.210Z,2.53
2023-02-16T17:02:43.402Z,2.33
2023-02-16T17:05:10.638Z,2.72
2023-02-16T17:07:38.149Z,2.92
2023-02-16T17:10:05.978Z,3.80
2023-02-16T17:12:34.024Z,3.13
2023-02-16T17:15:06.536Z,3.65
2023-02-16T17:17:33.786Z,3.17
2023-02-16T17:20:00.998Z,2.42
2023-02-16T17:22:28.327Z,2.70
2023-02-16T17:24:55.518Z,3.08
2023-02-16T17:27:23.320Z,3.90
2023-02-16T17:29:50.519Z,3.17
2023-02-16T17:32:17.709Z,2.90
2023-02-16T17:34:44.923Z,2.38
2023-02-16T17:37:15.015Z,3.20
2023-02-16T17:39:42.219Z,2.80
2023-02-16T17:42:12.968Z,3.42
2023-02-16T17:44:40.428Z,2.78
2023-02-16T17:47:13.982Z,2.60
2023-02-16T17:49:41.332Z,2.45
2023-02-16T17:52:12.665Z,3.08
2023-02-16T17:54:40.043Z,2.65
2023-02-16T17:57:07.174Z,2.50
2023-02-16T17:59:34.422Z,2.60
2023-02-16T18:02:01.466Z,2.22
2023-02-16T18:04:28.669Z,2.90
2023-02-16T18:06:55.842Z,3.33
2023-02-16T18:09:24.793Z,3.53
2023-02-16T18:11:51.973Z,3.45
2023-02-16T18:14:19.035Z,3.85
2023-02-16T18:16:52.143Z,3.70
2023-02-16T18:19:19.728Z,3.85
2023-02-16T18:21:46.949Z,3.65
2023-02-16T18:24:14.089Z,4.30
2023-02-16T18:26:41.200Z,3.85
2023-02-16T18:29:10.185Z,4.38
2023-02-16T18:31:37.445Z,3.65
2023-02-16T18:34:06.245Z,4.13
2023-02-16T18:36:33.490Z,3.08
2023-02-16T18:39:00.791Z,3.40
2023-02-16T18:41:28.111Z,3.63
2023-02-16T18:43:55.298Z,3.33
2023-02-16T18:46:22.513Z,3.88
2023-02-16T18:48:49.594Z,2.95
2023-02-16T18:51:17.821Z,2.55
2023-02-16T18:53:45.525Z,3.13
2023-02-16T18:56:12.971Z,3.58
2023-02-16T18:58:40.283Z,2.88
2023-02-16T19:01:15.117Z,2.63
2023-02-16T19:03:42.439Z,3.10
2023-02-16T19:06:09.708Z,3.10
2023-02-16T19:08:36.885Z,4.00
2023-02-16T19:11:04.114Z,2.72
2023-02-16T19:13:31.183Z,4.22
2023-02-16T19:15:58.393Z,4.50
2023-02-16T19:18:27.171Z,4.22
2023-02-16T19:20:54.291Z,3.35
2023-02-16T19:23:21.562Z,4.10
2023-02-16T19:25:48.699Z,3.92
2023-02-16T19:28:15.753Z,4.80
2023-02-16T19:30:43.042Z,5.03
2023-02-16T19:33:10.120Z,5.25
2023-02-16T19:35:37.219Z,4.70
2023-02-16T19:38:04.370Z,5.43
2023-02-16T19:40:31.945Z,4.93
2023-02-16T19:42:59.010Z,5.45
2023-02-16T19:45:26.242Z,4.30
2023-02-16T19:47:53.324Z,5.40
2023-02-16T19:50:20.478Z,4.80
2023-02-16T19:52:47.636Z,4.90
2023-02-16T19:55:14.755Z,5.30
2023-02-16T19:57:41.876Z,5.03
2023-02-16T20:00:13.662Z,4.80
2023-02-16T20:02:40.918Z,5.10
2023-02-16T20:05:09.983Z,5.00
2023-02-16T20:07:37.186Z,4.95
2023-02-16T20:10:04.483Z,5.40
2023-02-16T20:12:32.335Z,4.88
2023-02-16T20:14:59.431Z,5.13
2023-02-16T20:17:26.740Z,4.85
2023-02-16T20:19:53.861Z,5.03
2023-02-16T20:22:21.029Z,4.60
2023-02-16T20:24:48.080Z,4.93
2023-02-16T20:27:15.458Z,5.13
2023-02-16T20:29:42.612Z,5.65
2023-02-16T20:32:09.939Z,4.63
2023-02-16T20:34:37.080Z,5.55
2023-02-16T20:37:04.258Z,5.32
2023-02-16T20:39:31.431Z,5.20
2023-02-16T20:41:58.732Z,5.13
2023-02-16T20:44:26.659Z,4.90
2023-02-16T20:46:53.887Z,4.60
2023-02-16T20:49:21.121Z,5.18
2023-02-16T20:51:48.255Z,4.55
2023-02-16T20:54:15.515Z,4.97
2023-02-16T20:56:42.643Z,5.13
2023-02-16T20:59:11.969Z,4.80
2023-02-16T21:01:43.991Z,3.95
2023-02-16T21:04:11.237Z,5.18
2023-02-16T21:06:38.640Z,5.18
2023-02-16T21:09:08.698Z,4.90
2023-02-16T21:11:37.918Z,5.35
2023-02-16T21:14:06.884Z,5.47
2023-02-16T21:16:34.655Z,4.88
2023-02-16T21:19:02.879Z,4.20
2023-02-16T21:21:31.399Z,5.25
2023-02-16T21:23:58.755Z,5.00
2023-02-16T21:26:26.180Z,5.10
2023-02-16T21:28:54.604Z,4.30
2023-02-16T21:31:24.602Z,5.10
2023-02-16T21:33:52.766Z,4.97
2023-02-16T21:36:25.727Z,4.30
2023-02-16T21:38:53.405Z,4.63
2023-02-16T21:41:26.715Z,5.30
2023-02-16T21:43:55.619Z,4.00
2023-02-16T21:46:23.262Z,5.00
2023-02-16T21:48:50.676Z,4.78
2023-02-16T21:51:21.824Z,4.80
2023-02-16T21:53:49.120Z,4.18
2023-02-16T21:56:28.772Z,5.10
2023-02-16T21:58:56.554Z,4.30
2023-02-16T22:01:26.035Z,4.10
2023-02-16T22:03:58.797Z,4.57
2023-02-16T22:06:35.695Z,4.00
2023-02-16T22:09:07.728Z,4.38
2023-02-16T22:11:34.907Z,4.43
2023-02-16T22:14:02.602Z,3.63
2023-02-16T22:16:32.526Z,4.18
2023-02-16T22:19:07.368Z,4.60
2023-02-16T22:21:37.712Z,4.53
2023-02-16T22:24:05.989Z,4.30
2023-02-16T22:26:35.151Z,3.53
2023-02-16T22:29:04.694Z,3.85
2023-02-16T22:31:32.390Z,3.00
2023-02-16T22:34:09.026Z,3.05
2023-02-16T22:36:37.036Z,4.22
2023-02-16T22:39:05.140Z,3.60
2023-02-16T22:41:33.186Z,4.00
2023-02-16T22:44:00.571Z,4.20
2023-02-16T22:46:29.754Z,3.60
2023-02-16T22:49:01.329Z,3.75
2023-02-16T22:51:30.144Z,3.17
2023-02-16T22:54:02.180Z,3.60
2023-02-16T22:56:31.155Z,3.80
2023-02-16T22:58:59.801Z,3.58
2023-02-16T23:01:29.371Z,4.15
2023-02-16T23:03:58.025Z,3.55
2023-02-16T23:06:31.503Z,4.50
2023-02-16T23:09:05.610Z,4.20
2023-02-16T23:11:33.527Z,3.35
2023-02-16T23:14:01.148Z,3.70
2023-02-16T23:16:29.114Z,3.67
2023-02-16T23:18:57.869Z,4.13
2023-02-16T23:21:31.120Z,4.00
2023-02-16T23:23:59.457Z,3.35
2023-02-16T23:26:29.509Z,3.92
2023-02-16T23:29:00.597Z,3.83
2023-02-16T23:31:32.017Z,4.40
2023-02-16T23:34:01.831Z,3.33
2023-02-16T23:36:30.177Z,3.45
2023-02-16T23:39:06.722Z,4.10
2023-02-16T23:41:34.200Z,4.25
2023-02-16T23:44:01.467Z,4.10
2023-02-16T23:46:28.678Z,3.47
2023-02-16T23:48:55.909Z,4.03
2023-02-16T23:51:23.116Z,3.80
2023-02-16T23:53:50.790Z,3.22
2023-02-16T23:56:21.249Z,3.40
2023-02-16T23:58:49.394Z,3.80
